Terminal Aerodrome Forecast
Issued by NWS Bismarck, ND

Home | Current Version | Previous Version | Text Only | Print | Product List | Glossary On
Versions: 1 2 3 4 5 6 7 8 9 10 11 12 13 14 15 16 17
000
FTUS43 KBIS 181100
TAFISN
TAF
KISN 181129Z 1812/1912 12010G18KT P6SM VCSH BKN080 OVC120
     FM181400 13018G25KT P6SM BKN100 OVC120
     FM182000 14014KT P6SM -RA BKN040 OVC070
     FM190200 19007KT P6SM BKN090
     FM190400 27008KT P6SM FEW150=

USA.gov is the U.S. government's official web portal to all federal, state and local government web resources and services.